MAPA DE AEROPUERTO

INFORMACIÓN METAR y TAF


Deprecated: The each() function is deprecated. This message will be suppressed on further calls in /home/customer/www/clickair-va.com/public_html/VAM/vam/helpers/get_metar.php on line 20
METAR FOR RJAA
ADDS - METARS form results

(0357 UTC 25 May 2022)
Data provider http://aviationweather.gov/metar/data/
 
METAR text: RJAA 250330Z 15013KT 9999 FEW030 BKN/// 24/14 Q1013 NOSIG RMK 1CU030 A2992 SEV TURB OBS AT 0302Z AROUND MAMAS FL240 IN DES A321N PAL428
Conditions at: RJAA (NARITA INTL , JP) observed 0330 UTC 25 May 2022
Temperature: 24.0°C (75°F)
Dewpoint: 14.0°C (57°F) [RH = 54%]
Pressure (altimeter): 29.91 inches Hg (1013.0 mb)
Winds: from the SSE (150 degrees) at 15 MPH (13 knots; 6.7 m/s)
Visibility: 6 or more miles (10+ km)
Ceiling: at least 12,000 feet AGL
Clouds: few clouds at 3000 feet AGL
Weather: no significant weather observed at this time

METAR text: RJAA 250300Z 15011KT 120V190 9999 FEW020 BKN/// 25/17 Q1013 NOSIG RMK 1CU020 A2993
Conditions at: RJAA (NARITA INTL , JP) observed 0300 UTC 25 May 2022
Temperature: 25.0°C (77°F)
Dewpoint: 17.0°C (63°F) [RH = 61%]
Pressure (altimeter): 29.91 inches Hg (1013.0 mb)
Winds: from the SSE (150 degrees) at 13 MPH (11 knots; 5.7 m/s)
Visibility: 6 or more miles (10+ km)
Ceiling: at least 12,000 feet AGL
Clouds: few clouds at 2000 feet AGL
Weather: no significant weather observed at this time

Forecast for: RJAA (NARITA INTL , JP)
Text: TAF RJAA 242305Z 2500/2606 15012KT 9999 FEW030
Forecast period: 0000 UTC 25 May 2022 to 0600 UTC 26 May 2022
Forecast type: FROM: standard forecast or significant change
Winds: from the SSE (150 degrees) at 14 MPH (12 knots; 6.2 m/s)
Visibility: 6 or more miles (10+ km)
Ceiling: at least 12,000 feet AGL
Clouds: few clouds at 3000 feet AGL
Weather: no significant weather forecast for this period